Time;durP1;ratioP1;P1;durP2;ratioP2;P2;SDS_P1;SDS_P2;PMS_P1;PMS_P2;Temp;Humidity;BMP_temperature;BMP_pressure;BME280_temperature;BME280_humidity;BME280_pressure;Samples;Min_cycle;Max_cycle;Signal;HPM_P1;HPM_P2
2020/12/06 00:04:55;;;;;;;5.03;3.22;;;20.00;59.40;;;;;;15631175;28;20464;-57
2020/12/06 00:12:25;;;;;;;5.47;3.53;;;20.00;59.50;;;;;;15629825;28;20506;-57
2020/12/06 00:19:56;;;;;;;5.88;3.55;;;20.00;59.60;;;;;;15630160;28;20369;-57
2020/12/06 00:27:26;;;;;;;6.13;3.83;;;20.00;59.70;;;;;;15629948;28;20444;-57
2020/12/06 00:34:57;;;;;;;7.37;4.63;;;19.90;59.80;;;;;;15629065;28;20464;-57
2020/12/06 00:42:27;;;;;;;4.63;3.40;;;19.90;59.70;;;;;;15628636;28;20440;-57
2020/12/06 00:49:58;;;;;;;4.97;3.17;;;19.90;59.60;;;;;;15629274;28;20479;-57
2020/12/06 00:57:28;;;;;;;5.03;3.37;;;19.90;59.50;;;;;;15627924;28;20029;-57
2020/12/06 01:04:59;;;;;;;5.22;3.35;;;19.90;59.40;;;;;;15609844;28;20095;-57
2020/12/06 01:12:29;;;;;;;5.87;3.80;;;19.90;59.50;;;;;;15626920;28;20036;-57
2020/12/06 01:20:00;;;;;;;4.60;3.23;;;19.90;59.60;;;;;;15627385;28;20018;-57
2020/12/06 01:27:31;;;;;;;4.10;2.92;;;19.90;59.60;;;;;;15625854;28;20037;-57
2020/12/06 01:35:03;;;;;;;7.25;3.40;;;19.90;59.70;;;;;;15626658;28;20026;-57
2020/12/06 01:42:33;;;;;;;4.15;2.90;;;19.90;59.90;;;;;;15626205;28;20043;-57
2020/12/06 01:50:04;;;;;;;4.30;2.97;;;19.90;60.00;;;;;;15624854;28;20498;-57
2020/12/06 01:57:34;;;;;;;4.53;3.25;;;19.90;60.10;;;;;;15625230;28;20080;-57
2020/12/06 02:05:05;;;;;;;4.53;3.00;;;19.90;60.20;;;;;;15623975;28;20442;-57
2020/12/06 02:12:35;;;;;;;4.28;2.97;;;19.80;60.00;;;;;;15623559;28;20471;-57
2020/12/06 02:20:06;;;;;;;6.10;3.00;;;19.90;59.80;;;;;;15625320;28;20036;-57
2020/12/06 02:27:37;;;;;;;4.32;2.90;;;19.90;59.70;;;;;;15624108;28;20037;-57
2020/12/06 04:07:12;;;;;;;3.92;2.67;;;19.80;59.90;;;;;;15978890;22;20049;-64
2020/12/06 04:14:42;;;;;;;3.53;2.30;;;19.80;59.90;;;;;;15614303;28;20467;-64
2020/12/06 04:22:13;;;;;;;3.47;2.20;;;19.80;59.80;;;;;;15631774;28;20072;-64
2020/12/06 04:29:43;;;;;;;3.17;2.20;;;19.90;59.80;;;;;;15631865;28;20036;-64
2020/12/06 04:37:14;;;;;;;3.27;2.30;;;19.80;59.80;;;;;;15630721;28;20060;-64
2020/12/06 04:44:44;;;;;;;3.47;2.38;;;19.80;59.90;;;;;;15630567;28;21074;-64
2020/12/06 04:52:17;;;;;;;3.83;2.30;;;19.80;60.00;;;;;;15629804;28;20083;-64
2020/12/06 04:59:52;;;;;;;3.28;2.30;;;19.80;60.20;;;;;;15611882;28;20455;-64
2020/12/06 05:07:25;;;;;;;2.85;2.03;;;19.80;60.20;;;;;;15629396;28;20045;-64
2020/12/06 05:14:55;;;;;;;3.33;2.05;;;19.80;60.20;;;;;;15628994;28;20459;-64
2020/12/06 05:22:26;;;;;;;3.63;2.10;;;19.80;60.20;;;;;;15627299;28;20030;-64
2020/12/06 05:29:56;;;;;;;2.90;2.00;;;19.70;60.20;;;;;;15628407;28;20031;-64
2020/12/06 05:37:27;;;;;;;3.37;2.30;;;19.80;60.10;;;;;;15626726;28;21040;-64
2020/12/06 05:44:58;;;;;;;2.40;1.80;;;19.80;60.00;;;;;;15627071;28;20875;-64
2020/12/06 05:52:30;;;;;;;3.55;1.95;;;19.80;59.90;;;;;;15626746;28;20108;-64
2020/12/06 06:00:01;;;;;;;2.25;1.77;;;19.80;59.90;;;;;;15626747;28;20108;-64
2020/12/06 06:07:34;;;;;;;2.92;2.03;;;19.90;59.80;;;;;;15625417;28;20069;-64
2020/12/06 06:15:05;;;;;;;3.45;2.30;;;19.80;59.90;;;;;;15627088;28;20456;-64
2020/12/06 06:22:41;;;;;;;4.25;2.60;;;19.80;59.80;;;;;;15624835;28;20045;-64
2020/12/06 06:30:12;;;;;;;3.35;2.15;;;19.80;59.90;;;;;;15625018;28;20032;-64
2020/12/06 06:37:44;;;;;;;4.40;2.10;;;19.80;59.90;;;;;;15624662;28;20036;-64
2020/12/06 06:45:15;;;;;;;2.95;2.00;;;19.80;60.10;;;;;;15624470;28;20061;-65
2020/12/06 06:52:47;;;;;;;3.13;1.83;;;19.80;60.30;;;;;;15624188;28;20042;-64
2020/12/06 07:00:17;;;;;;;2.42;1.80;;;19.70;60.70;;;;;;15624006;28;20104;-64
2020/12/06 07:07:54;;;;;;;3.23;2.00;;;19.80;61.50;;;;;;15623431;28;20408;-64
2020/12/06 07:15:26;;;;;;;3.00;1.80;;;19.80;61.90;;;;;;15623519;28;20503;-64
2020/12/06 07:22:57;;;;;;;3.72;1.80;;;19.90;62.10;;;;;;15626829;28;20030;-64
2020/12/06 07:30:27;;;;;;;2.85;1.80;;;19.80;62.20;;;;;;15634739;28;20056;-64
2020/12/06 07:37:58;;;;;;;2.70;1.80;;;19.80;62.00;;;;;;15634352;28;20041;-64
2020/12/06 07:45:28;;;;;;;3.23;2.03;;;19.80;61.30;;;;;;15634256;28;20483;-64
2020/12/06 07:53:02;;;;;;;3.13;1.83;;;19.80;61.00;;;;;;15617123;28;20547;-64
2020/12/06 08:00:37;;;;;;;2.30;1.60;;;19.80;60.90;;;;;;15643992;28;20022;-64
2020/12/06 08:08:13;;;;;;;3.17;1.70;;;19.80;61.10;;;;;;15637402;28;20036;-64
2020/12/06 08:15:43;;;;;;;2.13;1.35;;;19.90;61.10;;;;;;15632839;28;20032;-64
2020/12/06 08:23:14;;;;;;;2.17;1.55;;;19.90;61.30;;;;;;15632543;28;20037;-64
2020/12/06 08:30:45;;;;;;;2.80;1.70;;;19.90;61.90;;;;;;15631643;28;21669;-64
2020/12/06 08:38:21;;;;;;;3.30;2.15;;;19.90;62.30;;;;;;15630656;28;20030;-66
2020/12/06 08:46:08;;;;;;;2.75;1.75;;;19.90;62.20;;;;;;15630491;28;20468;-67
2020/12/06 08:53:43;;;;;;;3.63;2.13;;;19.90;62.00;;;;;;15630746;28;20365;-67
2020/12/06 09:01:14;;;;;;;4.83;2.73;;;19.90;61.50;;;;;;15629864;28;20029;-67
2020/12/06 09:08:44;;;;;;;4.67;2.60;;;19.90;61.10;;;;;;15610632;28;20035;-67
2020/12/06 09:16:15;;;;;;;4.40;2.70;;;20.00;60.70;;;;;;15628319;28;20033;-67
2020/12/06 09:23:46;;;;;;;9.02;7.15;;;20.00;60.50;;;;;;15627938;28;20052;-64
2020/12/06 09:31:21;;;;;;;8.98;6.22;;;19.90;58.60;;;;;;15628475;28;20108;-64
2020/12/06 09:38:51;;;;;;;7.63;5.07;;;19.90;58.60;;;;;;15628850;28;20029;-64
2020/12/06 09:46:22;;;;;;;8.05;4.35;;;19.80;58.50;;;;;;15625861;28;20038;-64
2020/12/06 09:53:52;;;;;;;7.90;4.00;;;19.80;58.70;;;;;;15626818;28;20044;-64
2020/12/06 10:01:24;;;;;;;6.00;3.95;;;19.80;58.90;;;;;;15626137;28;20048;-64
2020/12/06 10:08:55;;;;;;;6.13;3.88;;;19.80;59.00;;;;;;15626041;28;20056;-64
2020/12/06 10:16:25;;;;;;;6.33;3.10;;;19.80;59.10;;;;;;15625387;28;20029;-64
2020/12/06 10:23:55;;;;;;;3.67;2.40;;;19.80;59.40;;;;;;15625143;28;20036;-64
2020/12/06 10:31:26;;;;;;;4.90;2.70;;;19.80;59.40;;;;;;15624605;28;20029;-64
2020/12/06 10:38:56;;;;;;;5.00;2.47;;;19.80;59.40;;;;;;15624651;28;20033;-64
2020/12/06 10:46:27;;;;;;;5.83;3.23;;;19.80;59.20;;;;;;15624324;28;20033;-64
2020/12/06 10:53:58;;;;;;;5.22;3.05;;;19.80;59.10;;;;;;15639244;22;20064;-58
2020/12/06 11:01:29;;;;;;;5.25;2.88;;;19.80;59.30;;;;;;15615368;28;20030;-57
2020/12/06 11:09:00;;;;;;;8.77;2.65;;;19.90;59.30;;;;;;15634703;28;20036;-57
2020/12/06 11:16:31;;;;;;;8.02;2.78;;;19.90;60.10;;;;;;15634700;28;20475;-57
2020/12/06 11:24:01;;;;;;;6.60;3.22;;;19.90;59.90;;;;;;15634593;28;20035;-57
2020/12/06 11:31:32;;;;;;;6.77;3.03;;;20.00;58.80;;;;;;15633493;28;20033;-57
2020/12/06 11:39:02;;;;;;;7.80;3.53;;;20.10;58.60;;;;;;15633773;28;20061;-58
2020/12/06 11:46:33;;;;;;;12.85;6.07;;;20.20;58.20;;;;;;15633331;28;20483;-57
2020/12/06 11:54:04;;;;;;;7.18;3.72;;;20.30;58.10;;;;;;15632270;28;20033;-57
2020/12/06 12:01:34;;;;;;;5.32;3.22;;;20.20;58.10;;;;;;15631822;28;20021;-57
2020/12/06 12:09:05;;;;;;;5.43;2.87;;;20.20;58.10;;;;;;15630322;28;20545;-57
2020/12/06 12:16:35;;;;;;;5.22;3.00;;;20.30;58.00;;;;;;15631569;28;20025;-57
2020/12/06 12:24:06;;;;;;;5.50;3.10;;;20.40;58.10;;;;;;15632115;28;20105;-57
2020/12/06 12:31:36;;;;;;;5.77;3.07;;;20.40;58.10;;;;;;15629912;28;20037;-57
2020/12/06 12:39:07;;;;;;;6.60;3.10;;;20.40;57.90;;;;;;15629631;28;20025;-57
2020/12/06 12:46:37;;;;;;;4.30;2.80;;;20.50;57.60;;;;;;15629096;28;20479;-57
2020/12/06 12:54:08;;;;;;;4.47;2.83;;;20.50;57.60;;;;;;15629754;28;20472;-57
2020/12/06 13:01:38;;;;;;;4.93;2.77;;;20.50;57.70;;;;;;15628529;28;20996;-57
2020/12/06 13:09:09;;;;;;;4.68;2.40;;;20.50;57.80;;;;;;15628016;28;20037;-57
2020/12/06 13:16:40;;;;;;;4.40;2.47;;;20.40;58.20;;;;;;15627944;28;20038;-57
2020/12/06 13:24:10;;;;;;;4.82;2.42;;;20.50;58.40;;;;;;15627358;28;20436;-57
2020/12/06 13:31:41;;;;;;;4.20;2.38;;;20.50;58.30;;;;;;15626528;28;20033;-57
2020/12/06 13:39:11;;;;;;;5.27;2.73;;;20.60;58.10;;;;;;15630773;28;20034;-57
2020/12/06 13:46:42;;;;;;;4.33;2.30;;;20.60;57.70;;;;;;15638955;28;20440;-58
2020/12/06 13:54:12;;;;;;;3.40;2.30;;;20.70;57.60;;;;;;15640889;28;20669;-57
2020/12/06 14:01:47;;;;;;;4.13;2.13;;;20.70;57.60;;;;;;15644739;28;20060;-57
2020/12/06 14:09:18;;;;;;;3.67;2.10;;;20.70;57.50;;;;;;15638154;28;20128;-58
2020/12/06 14:16:50;;;;;;;5.05;2.33;;;20.70;57.60;;;;;;15626640;28;21028;-58
2020/12/06 14:24:22;;;;;;;3.00;1.45;;;20.70;57.90;;;;;;15625365;28;20037;-58
2020/12/06 14:31:52;;;;;;;6.70;2.08;;;20.60;58.20;;;;;;15626513;28;20029;-57
2020/12/06 14:39:23;;;;;;;3.27;1.63;;;20.70;58.40;;;;;;15623991;28;20107;-57
2020/12/06 14:46:53;;;;;;;6.73;2.00;;;20.70;58.00;;;;;;15624525;28;20490;-57
2020/12/06 14:54:24;;;;;;;6.73;2.20;;;20.60;58.20;;;;;;15624196;28;20036;-57
2020/12/06 15:01:54;;;;;;;4.03;1.88;;;20.60;58.20;;;;;;15623945;28;20022;-57
2020/12/06 15:09:25;;;;;;;3.38;1.80;;;20.50;58.10;;;;;;15623975;28;20025;-57
2020/12/06 15:16:55;;;;;;;3.30;1.63;;;20.50;58.00;;;;;;15624485;28;20117;-57
2020/12/06 15:24:27;;;;;;;2.50;1.70;;;20.50;58.00;;;;;;15624653;28;20444;-57
2020/12/06 15:31:57;;;;;;;2.53;1.70;;;20.60;58.00;;;;;;15624752;28;20060;-57
2020/12/06 15:39:28;;;;;;;3.17;1.67;;;20.60;58.10;;;;;;15624492;28;20456;-57
2020/12/06 15:46:58;;;;;;;3.47;1.57;;;20.70;58.20;;;;;;15631695;28;20464;-57
2020/12/06 15:54:29;;;;;;;14.25;9.75;;;20.70;58.00;;;;;;15636261;28;20567;-57
2020/12/06 16:01:59;;;;;;;16.10;10.73;;;20.20;51.20;;;;;;15667828;28;20029;-57
2020/12/06 16:09:30;;;;;;;12.97;8.03;;;20.00;49.00;;;;;;15674663;28;20030;-59
2020/12/06 16:17:00;;;;;;;10.50;6.30;;;19.90;52.90;;;;;;15655615;28;20029;-57
2020/12/06 16:24:31;;;;;;;9.43;5.57;;;20.00;55.00;;;;;;15675157;28;20451;-57
2020/12/06 16:32:06;;;;;;;7.20;5.17;;;20.10;55.80;;;;;;15672978;28;20033;-57
2020/12/06 16:39:36;;;;;;;8.65;4.20;;;20.20;55.90;;;;;;15654648;28;20022;-57
2020/12/06 16:47:07;;;;;;;9.33;3.77;;;20.20;56.00;;;;;;15634204;28;20041;-57
2020/12/06 16:54:37;;;;;;;5.10;2.97;;;20.20;55.30;;;;;;15629957;28;20033;-57
2020/12/06 17:02:08;;;;;;;10.43;6.30;;;20.20;55.90;;;;;;15629028;28;20437;-57
2020/12/06 17:09:38;;;;;;;16.90;9.40;;;20.20;56.00;;;;;;15627734;28;20548;-57
2020/12/06 17:17:09;;;;;;;12.18;6.45;;;20.20;56.50;;;;;;15628036;28;20456;-58
2020/12/06 17:24:40;;;;;;;8.87;4.50;;;20.10;56.90;;;;;;15626788;28;20146;-57
2020/12/06 17:32:15;;;;;;;9.45;3.53;;;20.10;57.20;;;;;;15626413;28;20128;-57
2020/12/06 17:39:46;;;;;;;9.07;4.23;;;20.10;57.50;;;;;;15625623;28;20035;-57
2020/12/06 17:47:16;;;;;;;12.10;2.90;;;20.20;57.60;;;;;;15625468;28;20120;-58
2020/12/06 17:54:47;;;;;;;9.53;3.73;;;20.20;57.60;;;;;;15625977;28;20834;-58
2020/12/06 18:02:18;;;;;;;12.48;3.30;;;20.30;57.70;;;;;;15625765;28;20429;-57
2020/12/06 18:09:48;;;;;;;9.00;3.10;;;20.30;57.50;;;;;;15623914;28;20522;-57
2020/12/06 18:17:19;;;;;;;8.80;3.90;;;20.30;57.60;;;;;;15624037;28;20052;-57
2020/12/06 18:24:49;;;;;;;8.88;3.40;;;20.30;57.80;;;;;;15623745;28;20510;-57
2020/12/06 18:32:20;;;;;;;7.47;3.10;;;20.30;57.90;;;;;;15624477;28;20026;-57
2020/12/06 18:39:50;;;;;;;9.95;3.72;;;20.20;58.00;;;;;;15623380;28;20996;-57
2020/12/06 18:47:21;;;;;;;6.25;3.25;;;20.20;58.00;;;;;;15624352;28;20543;-58
2020/12/06 18:54:52;;;;;;;7.55;3.25;;;20.20;57.80;;;;;;15622989;28;20033;-57
2020/12/06 19:02:22;;;;;;;7.30;2.70;;;20.20;57.90;;;;;;15622648;28;20032;-57
2020/12/06 19:09:53;;;;;;;10.02;3.10;;;20.30;58.00;;;;;;15622928;28;20996;-57
2020/12/06 19:17:26;;;;;;;8.83;3.00;;;20.20;58.90;;;;;;15626513;28;20040;-58
2020/12/06 19:24:56;;;;;;;8.25;3.28;;;20.30;58.90;;;;;;15633912;28;20103;-58
2020/12/06 19:32:27;;;;;;;8.33;3.03;;;20.30;58.80;;;;;;15634615;28;20108;-58
2020/12/06 19:39:57;;;;;;;5.60;3.07;;;20.40;59.20;;;;;;15633347;28;20037;-58
2020/12/06 19:47:28;;;;;;;6.37;2.97;;;20.30;59.10;;;;;;15633045;28;20025;-58
2020/12/06 19:54:59;;;;;;;5.43;3.33;;;20.30;59.00;;;;;;15632391;28;20033;-57
2020/12/06 20:02:30;;;;;;;6.90;3.30;;;20.30;58.90;;;;;;15631792;28;20057;-58
2020/12/06 20:10:00;;;;;;;6.23;3.10;;;20.20;58.90;;;;;;15613621;28;20033;-57
2020/12/06 20:17:32;;;;;;;5.80;2.88;;;20.20;59.00;;;;;;15632810;28;20033;-58
2020/12/06 20:25:02;;;;;;;5.00;3.15;;;20.20;59.00;;;;;;15631671;28;20368;-57
2020/12/06 20:32:33;;;;;;;4.72;2.63;;;20.20;59.00;;;;;;15629709;28;20112;-57
2020/12/06 20:40:04;;;;;;;8.53;3.10;;;20.30;59.00;;;;;;15630768;28;20030;-57
2020/12/06 20:47:35;;;;;;;5.50;3.10;;;20.30;58.90;;;;;;15630239;28;20448;-57
2020/12/06 20:55:06;;;;;;;7.45;3.00;;;20.30;58.90;;;;;;15629220;28;20112;-57
2020/12/06 21:02:36;;;;;;;6.80;3.13;;;20.20;58.90;;;;;;15628498;28;20484;-57
2020/12/06 21:10:08;;;;;;;7.87;3.13;;;20.20;58.90;;;;;;15628240;28;20495;-57
2020/12/06 21:17:38;;;;;;;4.45;2.42;;;20.20;59.00;;;;;;15629497;28;20033;-58
2020/12/06 21:25:09;;;;;;;3.60;2.30;;;20.30;58.90;;;;;;15634129;28;20036;-58
2020/12/06 21:32:40;;;;;;;4.43;2.93;;;20.30;58.90;;;;;;15647024;28;20056;-57
2020/12/06 21:40:11;;;;;;;5.10;2.53;;;20.30;58.90;;;;;;15644395;28;20041;-57
2020/12/06 21:47:42;;;;;;;3.60;1.83;;;20.30;59.00;;;;;;15639661;28;20469;-57
2020/12/06 21:55:13;;;;;;;5.75;2.47;;;20.30;59.20;;;;;;15642689;28;20534;-58
2020/12/06 22:02:43;;;;;;;17.08;13.13;;;20.30;59.70;;;;;;15629017;28;20030;-57
2020/12/06 22:10:15;;;;;;;15.65;11.85;;;19.90;48.30;;;;;;15627167;28;20051;-58
2020/12/06 22:17:46;;;;;;;11.45;8.88;;;19.70;48.40;;;;;;15624399;28;20105;-57
2020/12/06 22:25:16;;;;;;;10.35;8.38;;;19.70;52.30;;;;;;15624777;28;20435;-57
2020/12/06 22:32:47;;;;;;;10.80;7.50;;;19.70;54.00;;;;;;15625361;28;20033;-57
2020/12/06 22:40:18;;;;;;;10.30;6.77;;;19.70;54.60;;;;;;15623558;28;20028;-57
2020/12/06 22:47:48;;;;;;;8.68;5.88;;;19.70;54.90;;;;;;15622936;28;20103;-57
2020/12/06 22:55:19;;;;;;;8.25;5.97;;;19.70;55.30;;;;;;15655266;22;20474;-66
2020/12/06 23:02:50;;;;;;;9.80;6.03;;;19.70;55.50;;;;;;15637314;28;20484;-67
2020/12/06 23:10:20;;;;;;;8.30;5.47;;;19.70;55.60;;;;;;15636610;28;20452;-66
2020/12/06 23:17:50;;;;;;;6.67;4.67;;;19.70;55.80;;;;;;15636233;28;20511;-67
2020/12/06 23:25:21;;;;;;;7.00;4.93;;;19.70;55.90;;;;;;15635714;28;20030;-67
2020/12/06 23:32:51;;;;;;;7.20;4.50;;;19.80;55.90;;;;;;15637580;28;20419;-66
2020/12/06 23:40:22;;;;;;;9.30;5.30;;;19.80;56.00;;;;;;15635749;28;20462;-67
2020/12/06 23:47:54;;;;;;;8.63;4.73;;;19.80;56.10;;;;;;15633511;28;20067;-66
2020/12/06 23:55:25;;;;;;;8.35;4.57;;;19.80;56.10;;;;;;15632859;28;20036;-66
